Lister — ZDHW6 — position and weather

sailwx.info

Track history (hours):
 
Tides and Currents Weather Stations Pressure Air Temp Water Temp Dewpoint Dewpoint Depression Visibility Wind Speed Wind Dir Waves Ship Positions

Lister

Last reported at 2014-Oct-30 20:17 UTC. Time now 2014-Oct-30 23:50 UTC.
Position N 56°58' E 017°19'.

Length 89 m; draft 5.9 m.

Type: Ship. MMSI: 236381000.

Date/timePositionNaut miles runAvg speedWind from/ knotsBaromVisibWave heightAir tempDewpointWater temp
2014-Oct-30 20:17N 56°58' E 017°19'1 1.8
2014-Oct-30 19:33N 56°59' E 017°20'1 1.3
2014-Oct-30 18:33N 56°58' E 017°19'7 7.2
2014-Oct-30 17:33N 57°05' E 017°23'2 1.7
2014-Oct-30 16:34N 57°03' E 017°22'2 2.3
2014-Oct-30 15:33N 57°05' E 017°24'5 5.1
2014-Oct-30 14:33N 57°10' E 017°28'8 8.0
2014-Oct-30 13:33N 57°17' E 017°33'8 8.1
2014-Oct-30 12:33N 57°25' E 017°40'11 8.1
2014-Oct-30 11:11N 57°34' E 017°51'5 8.2
2014-Oct-30 10:33N 57°38' E 017°58'200 7.3
2014-Oct-29 07:14N 59°36' E 023°08'5 6.5
2014-Oct-29 06:31N 59°37' E 023°17'6 6.6
2014-Oct-29 05:33N 59°39' E 023°29'6 6.1
2014-Oct-29 04:33N 59°41' E 023°41'6 6.3
2014-Oct-29 03:33N 59°42' E 023°53'7 6.3
2014-Oct-29 02:29N 59°44' E 024°06'8 7.1
2014-Oct-29 01:22N 59°46' E 024°21'9 7.6
2014-Oct-29 00:08N 59°49' E 024°39'28 7.7
2014-Oct-28 20:29N 59°54' E 025°34'7 7.8
2014-Oct-28 19:32N 59°55' E 025°48'16 7.9
2014-Oct-28 17:31N 59°59' E 026°19'8 8.0
2014-Oct-28 16:33N 60°01' E 026°34'10 8.6
2014-Oct-28 15:25N 60°00' E 026°54'  
2014-Oct-24 07:32N 59°59' E 026°50'9 9.0
2014-Oct-24 06:33N 59°59' E 026°32'2010.0
2014-Oct-24 04:33N 59°53' E 025°54'3510.1
2014-Oct-24 01:05N 59°46' E 024°46'610.5
2014-Oct-24 00:33N 59°45' E 024°35'3510.9
2014-Oct-23 21:23N 59°34' E 023°30'345 9.2
2014-Oct-22 08:04N 55°42' E 015°35'6 9.7
2014-Oct-22 07:28N 55°39' E 015°26'9 9.7
2014-Oct-22 06:33N 55°34' E 015°13'10 9.7
2014-Oct-22 05:33N 55°30' E 014°58'10 9.6
2014-Oct-22 04:33N 55°25' E 014°43'10 9.5
2014-Oct-22 03:33N 55°18' E 014°31'10 9.6
2014-Oct-22 02:33N 55°11' E 014°20'10 9.5
2014-Oct-22 01:33N 55°11' E 014°03'10 9.6
2014-Oct-22 00:33N 55°11' E 013°46'10 9.6
2014-Oct-21 23:28N 55°13' E 013°28'18 9.7
2014-Oct-21 21:33N 55°15' E 012°56'10 9.5
2014-Oct-21 20:33N 55°18' E 012°40'9 8.8
2014-Oct-21 19:33N 55°26' E 012°40'1010.0
2014-Oct-21 18:33N 55°36' E 012°42'1010.3
2014-Oct-21 17:33N 55°47' E 012°42'7 6.9
2014-Oct-21 16:33N 55°52' E 012°49'0 0.3
2014-Oct-21 15:30N 55°52' E 012°50'0 0.0
2014-Oct-21 14:33N 55°52' E 012°50'0 0.0
2014-Oct-21 13:33N 55°52' E 012°50'0 0.0
2014-Oct-21 12:33N 55°52' E 012°50'0 0.0
2014-Oct-21 11:33N 55°52' E 012°50'0 0.0
2014-Oct-21 10:33N 55°52' E 012°50'0 0.0
2014-Oct-21 09:33N 55°52' E 012°50'0 0.0
2014-Oct-21 08:33N 55°52' E 012°50'0 0.0
2014-Oct-21 07:33N 55°52' E 012°50'0 0.0
2014-Oct-21 06:33N 55°52' E 012°50'0 0.0
2014-Oct-21 05:33N 55°52' E 012°50'0 0.0
2014-Oct-21 04:33N 55°52' E 012°50'0 0.0
2014-Oct-21 03:33N 55°52' E 012°50'0 0.0
2014-Oct-21 02:33N 55°52' E 012°50'0 0.0
2014-Oct-21 01:33N 55°52' E 012°50'0 0.0
2014-Oct-21 00:30N 55°52' E 012°50'0 0.0
2014-Oct-20 23:33N 55°52' E 012°50'0 0.0
2014-Oct-20 22:33N 55°52' E 012°50'0 0.0
2014-Oct-20 21:27N 55°52' E 012°50'0 0.0
2014-Oct-20 20:30N 55°52' E 012°50'  
Track history (hours):
 
Tides and Currents Weather Stations Pressure Air Temp Water Temp Dewpoint Dewpoint Depression Visibility Wind Speed Wind Dir Waves Ship Positions

Lister

Last reported at 2014-Oct-30 20:17 UTC. Time now 2014-Oct-30 23:50 UTC.
Position N 56°58' E 017°19'.

Length 89 m; draft 5.9 m.

Type: Ship. MMSI: 236381000.

Date/timePositionNaut miles runAvg speedWind from/ knotsBaromVisibWave heightAir tempDewpointWater temp
2014-Oct-30 20:17N 56°58' E 017°19'1 1.8
2014-Oct-30 19:33N 56°59' E 017°20'1 1.3
2014-Oct-30 18:33N 56°58' E 017°19'7 7.2
2014-Oct-30 17:33N 57°05' E 017°23'2 1.7
2014-Oct-30 16:34N 57°03' E 017°22'2 2.3
2014-Oct-30 15:33N 57°05' E 017°24'5 5.1
2014-Oct-30 14:33N 57°10' E 017°28'8 8.0
2014-Oct-30 13:33N 57°17' E 017°33'8 8.1
2014-Oct-30 12:33N 57°25' E 017°40'11 8.1
2014-Oct-30 11:11N 57°34' E 017°51'5 8.2
2014-Oct-30 10:33N 57°38' E 017°58'200 7.3
2014-Oct-29 07:14N 59°36' E 023°08'5 6.5
2014-Oct-29 06:31N 59°37' E 023°17'6 6.6
2014-Oct-29 05:33N 59°39' E 023°29'6 6.1
2014-Oct-29 04:33N 59°41' E 023°41'6 6.3
2014-Oct-29 03:33N 59°42' E 023°53'7 6.3
2014-Oct-29 02:29N 59°44' E 024°06'8 7.1
2014-Oct-29 01:22N 59°46' E 024°21'9 7.6
2014-Oct-29 00:08N 59°49' E 024°39'28 7.7
2014-Oct-28 20:29N 59°54' E 025°34'7 7.8
2014-Oct-28 19:32N 59°55' E 025°48'16 7.9
2014-Oct-28 17:31N 59°59' E 026°19'8 8.0
2014-Oct-28 16:33N 60°01' E 026°34'10 8.6
2014-Oct-28 15:25N 60°00' E 026°54'  
2014-Oct-24 07:32N 59°59' E 026°50'9 9.0
2014-Oct-24 06:33N 59°59' E 026°32'2010.0
2014-Oct-24 04:33N 59°53' E 025°54'3510.1
2014-Oct-24 01:05N 59°46' E 024°46'610.5
2014-Oct-24 00:33N 59°45' E 024°35'3510.9
2014-Oct-23 21:23N 59°34' E 023°30'345 9.2
2014-Oct-22 08:04N 55°42' E 015°35'6 9.7
2014-Oct-22 07:28N 55°39' E 015°26'9 9.7
2014-Oct-22 06:33N 55°34' E 015°13'10 9.7
2014-Oct-22 05:33N 55°30' E 014°58'10 9.6
2014-Oct-22 04:33N 55°25' E 014°43'10 9.5
2014-Oct-22 03:33N 55°18' E 014°31'10 9.6
2014-Oct-22 02:33N 55°11' E 014°20'10 9.5
2014-Oct-22 01:33N 55°11' E 014°03'10 9.6
2014-Oct-22 00:33N 55°11' E 013°46'10 9.6
2014-Oct-21 23:28N 55°13' E 013°28'18 9.7
2014-Oct-21 21:33N 55°15' E 012°56'10 9.5
2014-Oct-21 20:33N 55°18' E 012°40'9 8.8
2014-Oct-21 19:33N 55°26' E 012°40'1010.0
2014-Oct-21 18:33N 55°36' E 012°42'1010.3
2014-Oct-21 17:33N 55°47' E 012°42'7 6.9
2014-Oct-21 16:33N 55°52' E 012°49'0 0.3
2014-Oct-21 15:30N 55°52' E 012°50'0 0.0
2014-Oct-21 14:33N 55°52' E 012°50'0 0.0
2014-Oct-21 13:33N 55°52' E 012°50'0 0.0
2014-Oct-21 12:33N 55°52' E 012°50'0 0.0
2014-Oct-21 11:33N 55°52' E 012°50'0 0.0
2014-Oct-21 10:33N 55°52' E 012°50'0 0.0
2014-Oct-21 09:33N 55°52' E 012°50'0 0.0
2014-Oct-21 08:33N 55°52' E 012°50'0 0.0
2014-Oct-21 07:33N 55°52' E 012°50'0 0.0
2014-Oct-21 06:33N 55°52' E 012°50'0 0.0
2014-Oct-21 05:33N 55°52' E 012°50'0 0.0
2014-Oct-21 04:33N 55°52' E 012°50'0 0.0
2014-Oct-21 03:33N 55°52' E 012°50'0 0.0
2014-Oct-21 02:33N 55°52' E 012°50'0 0.0
2014-Oct-21 01:33N 55°52' E 012°50'0 0.0
2014-Oct-21 00:30N 55°52' E 012°50'0 0.0
2014-Oct-20 23:33N 55°52' E 012°50'0 0.0
2014-Oct-20 22:33N 55°52' E 012°50'0 0.0
2014-Oct-20 21:27N 55°52' E 012°50'0 0.0
2014-Oct-20 20:30N 55°52' E 012°50'  

Dump ship's entire track history